createdAt,value
2019-04-27T00:01:50.867Z,100994.00
2019-04-27T00:04:37.279Z,100985.22
2019-04-27T00:07:26.568Z,100990.03
2019-04-27T00:10:00.726Z,100993.02
2019-04-27T00:12:27.566Z,101004.48
2019-04-27T00:14:56.073Z,101011.98
2019-04-27T00:17:49.577Z,101014.83
2019-04-27T00:20:43.365Z,101009.64
2019-04-27T00:23:13.298Z,101003.01
2019-04-27T00:25:41.364Z,100998.97
2019-04-27T00:28:08.109Z,101003.61
2019-04-27T00:30:35.573Z,100996.09
2019-04-27T00:33:03.032Z,100985.32
2019-04-27T00:35:39.699Z,100979.30
2019-04-27T00:38:24.878Z,100963.72
2019-04-27T00:41:05.134Z,100962.77
2019-04-27T00:43:34.008Z,100953.13
2019-04-27T00:46:00.841Z,100939.86
2019-04-27T00:48:27.784Z,100936.95
2019-04-27T00:50:54.638Z,100938.68
2019-04-27T00:53:21.230Z,100936.76
2019-04-27T00:56:05.686Z,100936.09
2019-04-27T00:58:39.472Z,100932.82
2019-04-27T01:01:24.171Z,100931.95
2019-04-27T01:04:04.001Z,100925.71
2019-04-27T01:06:30.712Z,100926.77
2019-04-27T01:08:57.331Z,100922.60
2019-04-27T01:11:24.931Z,100912.80
2019-04-27T01:13:53.669Z,100910.94
2019-04-27T01:16:22.473Z,100900.15
2019-04-27T01:18:49.957Z,100899.44
2019-04-27T01:21:16.568Z,100893.30
2019-04-27T01:23:44.709Z,100884.36
2019-04-27T01:26:34.742Z,100886.95
2019-04-27T01:29:04.431Z,100886.52
2019-04-27T01:31:31.716Z,100885.65
2019-04-27T01:33:59.048Z,100901.06
2019-04-27T01:36:26.426Z,100899.95
2019-04-27T01:38:53.085Z,100905.39
2019-04-27T01:41:19.755Z,100900.27
2019-04-27T01:43:46.362Z,100893.64
2019-04-27T01:46:13.167Z,100900.99
2019-04-27T01:48:39.771Z,100898.63
2019-04-27T01:51:06.397Z,100891.17
2019-04-27T01:53:33.117Z,100886.75
2019-04-27T01:55:59.827Z,100881.54
2019-04-27T01:58:26.594Z,100889.23
2019-04-27T02:01:25.024Z,100890.94
2019-04-27T02:04:05.128Z,100891.83
2019-04-27T02:06:31.956Z,100894.87
2019-04-27T02:08:59.527Z,100902.66
2019-04-27T02:11:28.642Z,100906.57
2019-04-27T02:13:59.434Z,100907.52
2019-04-27T02:16:30.337Z,100907.52
2019-04-27T02:18:55.972Z,100915.91
2019-04-27T02:21:22.711Z,100913.23
2019-04-27T02:23:49.807Z,100912.30
2019-04-27T02:26:16.905Z,100916.62
2019-04-27T02:28:53.897Z,100910.16
2019-04-27T02:31:31.277Z,100907.73
2019-04-27T02:34:05.563Z,100910.47
2019-04-27T02:36:34.021Z,100908.33
2019-04-27T02:39:00.772Z,100903.44
2019-04-27T02:41:29.770Z,100896.89
2019-04-27T02:44:11.477Z,100895.55
2019-04-27T02:46:39.517Z,100895.72
2019-04-27T02:49:07.490Z,100900.33
2019-04-27T02:51:49.622Z,100909.44
2019-04-27T02:54:16.509Z,100903.67
2019-04-27T02:56:43.383Z,100897.19
2019-04-27T02:59:11.960Z,100900.80
2019-04-27T03:01:46.897Z,100898.63
2019-04-27T03:04:13.908Z,100897.34
2019-04-27T03:06:40.726Z,100891.17
2019-04-27T03:09:10.479Z,100894.42
2019-04-27T03:11:39.581Z,100885.08
2019-04-27T03:14:36.233Z,100887.64
2019-04-27T03:17:19.968Z,100888.61
2019-04-27T03:19:55.579Z,100886.41
2019-04-27T03:22:32.992Z,100883.03
2019-04-27T03:25:30.323Z,100875.94
2019-04-27T03:28:03.061Z,100874.74
2019-04-27T03:30:31.632Z,100885.34
2019-04-27T03:33:02.786Z,100892.20
2019-04-27T03:35:32.104Z,100892.84
2019-04-27T03:38:00.353Z,100894.30
2019-04-27T03:40:26.555Z,100898.33
2019-04-27T03:42:56.538Z,100888.23
2019-04-27T03:45:23.321Z,100887.02
2019-04-27T03:47:50.758Z,100871.47
2019-04-27T03:50:23.110Z,100862.25
2019-04-27T03:53:10.312Z,100874.54
2019-04-27T03:55:39.763Z,100873.51
2019-04-27T03:58:21.401Z,100867.92
2019-04-27T04:00:46.371Z,100871.77
2019-04-27T04:03:14.426Z,100875.23
2019-04-27T04:05:41.332Z,100874.26
2019-04-27T04:08:10.445Z,100866.44
2019-04-27T04:10:41.713Z,100864.95
2019-04-27T04:13:20.419Z,100860.44
2019-04-27T04:16:14.496Z,100865.42
2019-04-27T04:19:00.912Z,100884.34
2019-04-27T04:21:29.807Z,100877.92
2019-04-27T04:23:56.479Z,100877.36
2019-04-27T04:26:23.389Z,100876.47
2019-04-27T04:28:50.184Z,100878.28
2019-04-27T04:31:16.968Z,100878.20
2019-04-27T04:33:43.841Z,100873.42
2019-04-27T04:36:10.603Z,100878.11
2019-04-27T04:38:37.401Z,100879.84
2019-04-27T04:41:09.571Z,100874.26
2019-04-27T04:43:45.223Z,100874.05
2019-04-27T04:46:32.856Z,100871.19
2019-04-27T04:49:00.356Z,100870.73
2019-04-27T04:51:30.281Z,100871.52
2019-04-27T04:53:59.744Z,100873.42
2019-04-27T04:56:26.711Z,100868.98
2019-04-27T04:58:53.655Z,100863.16
2019-04-27T05:01:21.520Z,100867.22
2019-04-27T05:03:48.931Z,100869.96
2019-04-27T05:06:16.030Z,100861.24
2019-04-27T05:08:44.571Z,100863.92
2019-04-27T05:11:11.264Z,100866.78
2019-04-27T05:13:39.336Z,100867.73
2019-04-27T05:16:06.451Z,100864.58
2019-04-27T05:18:33.198Z,100869.77
2019-04-27T05:21:06.047Z,100870.34
2019-04-27T05:23:32.900Z,100863.63
2019-04-27T05:25:59.721Z,100867.17
2019-04-27T05:28:26.353Z,100854.66
2019-04-27T05:30:54.223Z,100857.28
2019-04-27T05:33:22.645Z,100855.70
2019-04-27T05:35:49.435Z,100849.98
2019-04-27T05:38:16.429Z,100841.55
2019-04-27T05:40:43.190Z,100840.52
2019-04-27T05:43:11.928Z,100844.05
2019-04-27T05:46:42.073Z,100845.98
2019-04-27T05:49:31.621Z,100837.77
2019-04-27T05:51:59.462Z,100839.69
2019-04-27T05:54:29.279Z,100839.17
2019-04-27T05:56:55.042Z,100835.80
2019-04-27T05:59:21.875Z,100834.14
2019-04-27T06:01:49.318Z,100826.78
2019-04-27T06:04:16.651Z,100825.48
2019-04-27T06:06:43.814Z,100829.22
2019-04-27T06:09:12.036Z,100826.83
2019-04-27T06:11:39.980Z,100831.28
2019-04-27T06:14:07.159Z,100831.41
2019-04-27T06:16:33.709Z,100823.88
2019-04-27T06:19:00.287Z,100830.87
2019-04-27T06:21:29.515Z,100816.52
2019-04-27T06:23:56.359Z,100823.63
2019-04-27T06:26:23.719Z,100812.52
2019-04-27T06:28:50.539Z,100814.88
2019-04-27T06:31:17.279Z,100813.66
2019-04-27T06:33:43.878Z,100815.86
2019-04-27T06:36:10.848Z,100815.92
2019-04-27T06:38:39.393Z,100811.28
2019-04-27T06:41:10.024Z,100813.13
2019-04-27T06:43:40.446Z,100811.58
2019-04-27T06:46:10.445Z,100804.96
2019-04-27T06:48:37.395Z,100810.56
2019-04-27T06:51:05.875Z,100814.17
2019-04-27T06:53:32.732Z,100814.16
2019-04-27T06:55:59.503Z,100805.58
2019-04-27T06:58:26.596Z,100810.02
2019-04-27T07:00:53.183Z,100796.70
2019-04-27T07:03:19.946Z,100799.99
2019-04-27T07:05:48.614Z,100803.34
2019-04-27T07:08:16.230Z,100805.98
2019-04-27T07:10:43.515Z,100808.23
2019-04-27T07:13:10.540Z,100802.48
2019-04-27T07:15:38.707Z,100798.25
2019-04-27T07:18:05.552Z,100803.91
2019-04-27T07:20:32.567Z,100800.89
2019-04-27T07:23:00.195Z,100797.53
2019-04-27T07:25:28.807Z,100796.28
2019-04-27T07:27:55.486Z,100796.89
2019-04-27T07:30:22.251Z,100784.61
2019-04-27T07:32:49.014Z,100783.19
2019-04-27T07:35:16.639Z,100789.90
2019-04-27T07:37:43.346Z,100780.31
2019-04-27T07:40:10.326Z,100782.63
2019-04-27T07:42:36.915Z,100791.45
2019-04-27T07:45:12.516Z,100786.08
2019-04-27T07:47:41.952Z,100785.81
2019-04-27T07:50:09.662Z,100791.04
2019-04-27T07:52:37.950Z,100779.69
2019-04-27T07:55:05.148Z,100784.54
2019-04-27T07:57:32.111Z,100776.97
2019-04-27T07:59:59.624Z,100774.30
2019-04-27T08:02:26.456Z,100782.86
2019-04-27T08:04:53.093Z,100770.61
2019-04-27T08:07:19.898Z,100773.63
2019-04-27T08:09:46.588Z,100764.39
2019-04-27T08:12:13.506Z,100768.16
2019-04-27T08:14:40.605Z,100774.86
2019-04-27T08:17:07.322Z,100772.49
2019-04-27T08:19:33.933Z,100774.88
2019-04-27T08:22:01.608Z,100776.94
2019-04-27T08:24:29.472Z,100766.00
2019-04-27T08:27:09.458Z,100764.24
2019-04-27T08:29:54.693Z,100761.73
2019-04-27T08:32:26.541Z,100757.66
2019-04-27T08:34:53.355Z,100761.84
2019-04-27T08:37:20.308Z,100768.07
2019-04-27T08:39:46.939Z,100765.09
2019-04-27T08:42:13.939Z,100760.17
2019-04-27T08:44:40.701Z,100756.47
2019-04-27T08:47:09.608Z,100759.14
2019-04-27T08:49:36.276Z,100759.73
2019-04-27T08:52:03.368Z,100757.23
2019-04-27T08:54:29.998Z,100749.08
2019-04-27T08:56:56.918Z,100756.06
2019-04-27T08:59:23.824Z,100745.27
2019-04-27T09:01:50.581Z,100749.67
2019-04-27T09:04:17.236Z,100749.88
2019-04-27T09:06:46.048Z,100745.63
2019-04-27T09:09:36.299Z,100744.46
2019-04-27T09:12:23.100Z,100750.64
2019-04-27T09:14:59.178Z,100744.30
2019-04-27T09:17:35.969Z,100744.37
2019-04-27T09:20:26.439Z,100741.91
2019-04-27T09:22:53.872Z,100738.56
2019-04-27T09:25:20.552Z,100734.00
2019-04-27T09:27:49.146Z,100743.00
2019-04-27T09:30:15.945Z,100725.71
2019-04-27T09:32:42.493Z,100722.66
2019-04-27T09:35:09.951Z,100724.01
2019-04-27T09:37:37.105Z,100718.67
2019-04-27T09:40:06.321Z,100721.46
2019-04-27T09:42:36.237Z,100713.88
2019-04-27T09:45:06.647Z,100709.95
2019-04-27T09:47:34.096Z,100706.62
2019-04-27T09:50:02.316Z,100702.05
2019-04-27T09:52:30.294Z,100707.38
2019-04-27T09:55:01.614Z,100698.33
2019-04-27T09:57:31.748Z,100702.81
2019-04-27T09:59:59.419Z,100693.86
2019-04-27T10:02:27.012Z,100699.22
2019-04-27T10:04:54.477Z,100696.30
2019-04-27T10:07:21.858Z,100687.06
2019-04-27T10:09:49.416Z,100687.91
2019-04-27T10:12:17.675Z,100690.05
2019-04-27T10:14:45.466Z,100685.38
2019-04-27T10:17:13.911Z,100682.78
2019-04-27T10:19:41.191Z,100685.70
2019-04-27T10:22:08.377Z,100694.10
2019-04-27T10:24:37.957Z,100685.95
2019-04-27T10:27:07.760Z,100674.84
2019-04-27T10:29:35.621Z,100681.11
2019-04-27T10:32:06.233Z,100676.39
2019-04-27T10:34:33.390Z,100677.22
2019-04-27T10:37:06.397Z,100667.73
2019-04-27T10:39:38.826Z,100666.86
2019-04-27T10:42:06.707Z,100674.84
2019-04-27T10:44:35.494Z,100660.33
2019-04-27T10:47:02.313Z,100656.82
2019-04-27T10:49:29.511Z,100660.37
2019-04-27T10:51:56.628Z,100651.98
2019-04-27T10:54:23.257Z,100657.95
2019-04-27T10:56:50.456Z,100652.34
2019-04-27T10:59:17.089Z,100658.38
2019-04-27T11:01:45.856Z,100655.58
2019-04-27T11:04:32.273Z,100657.36
2019-04-27T11:07:01.473Z,100653.59
2019-04-27T11:09:28.240Z,100649.66
2019-04-27T11:11:57.135Z,100649.70
2019-04-27T11:14:25.691Z,100644.98
2019-04-27T11:16:52.934Z,100637.33
2019-04-27T11:19:19.736Z,100641.88
2019-04-27T11:21:46.603Z,100644.33
2019-04-27T11:24:13.625Z,100645.81
2019-04-27T11:26:40.409Z,100639.52
2019-04-27T11:29:07.315Z,100639.38
2019-04-27T11:31:34.065Z,100636.91
2019-04-27T11:34:00.805Z,100637.54
2019-04-27T11:36:39.212Z,100632.89
2019-04-27T11:39:11.638Z,100635.25
2019-04-27T11:41:38.597Z,100629.70
2019-04-27T11:44:05.479Z,100622.25
2019-04-27T11:46:33.265Z,100629.05
2019-04-27T11:49:00.482Z,100626.25
2019-04-27T11:51:27.850Z,100609.69
2019-04-27T11:53:55.696Z,100620.30
2019-04-27T11:56:22.253Z,100626.43
2019-04-27T11:58:49.269Z,100613.66
2019-04-27T12:01:16.086Z,100615.67
2019-04-27T12:03:42.815Z,100619.23
2019-04-27T12:06:09.551Z,100611.52
2019-04-27T12:08:37.870Z,100618.26
2019-04-27T12:11:05.932Z,100615.36
2019-04-27T12:13:32.829Z,100611.01
2019-04-27T12:15:59.531Z,100614.86
2019-04-27T12:18:26.204Z,100609.22
2019-04-27T12:20:55.794Z,100610.69
2019-04-27T12:23:33.009Z,100615.47
2019-04-27T12:25:51.522Z,100600.27
2019-04-27T12:28:33.178Z,100601.20
2019-04-27T12:31:19.197Z,100602.67
2019-04-27T12:33:47.053Z,100597.42
2019-04-27T12:36:15.644Z,100595.14
2019-04-27T12:38:42.882Z,100595.30
2019-04-27T12:41:10.631Z,100587.23
2019-04-27T12:43:37.576Z,100584.02
2019-04-27T12:46:05.941Z,100590.81
2019-04-27T12:48:33.437Z,100585.78
2019-04-27T12:51:01.863Z,100571.72
2019-04-27T12:53:49.859Z,100574.83
2019-04-27T12:56:33.750Z,100572.22
2019-04-27T12:59:07.424Z,100569.63
2019-04-27T13:01:36.000Z,100565.58
2019-04-27T13:04:03.087Z,100566.08
2019-04-27T13:06:29.921Z,100567.02
2019-04-27T13:08:57.559Z,100561.73
2019-04-27T13:11:26.512Z,100560.95
2019-04-27T13:13:52.959Z,100560.11
2019-04-27T13:16:19.612Z,100572.39
2019-04-27T13:18:46.266Z,100562.73
2019-04-27T13:21:13.263Z,100561.63
2019-04-27T13:23:41.090Z,100558.80
2019-04-27T13:26:07.900Z,100563.48
2019-04-27T13:28:35.873Z,100559.53
2019-04-27T13:31:03.072Z,100554.67
2019-04-27T13:33:29.738Z,100561.57
2019-04-27T13:35:56.451Z,100558.17
2019-04-27T13:38:23.406Z,100551.94
2019-04-27T13:41:06.827Z,100550.88
2019-04-27T13:43:35.077Z,100561.55
2019-04-27T13:46:39.640Z,100581.03
2019-04-27T13:49:33.654Z,100600.53
2019-04-27T13:52:07.458Z,100615.34
2019-04-27T13:54:34.741Z,100624.00
2019-04-27T13:57:01.523Z,100626.22
2019-04-27T13:59:28.324Z,100624.77
2019-04-27T14:01:55.106Z,100622.80
2019-04-27T14:04:24.152Z,100625.06
2019-04-27T14:06:50.904Z,100632.98
2019-04-27T14:09:17.663Z,100637.37
2019-04-27T14:11:44.478Z,100647.95
2019-04-27T14:14:14.955Z,100650.84
2019-04-27T14:16:43.977Z,100659.42
2019-04-27T14:19:11.135Z,100650.84
2019-04-27T14:21:38.004Z,100662.50
2019-04-27T14:24:05.893Z,100648.80
2019-04-27T14:26:35.614Z,100656.39
2019-04-27T14:29:02.464Z,100650.47
2019-04-27T14:31:30.504Z,100651.52
2019-04-27T14:33:58.765Z,100650.38
2019-04-27T14:36:25.860Z,100642.62
2019-04-27T14:38:52.802Z,100639.27
2019-04-27T14:41:21.542Z,100635.91
2019-04-27T14:43:49.925Z,100635.70
2019-04-27T14:46:18.647Z,100644.10
2019-04-27T14:48:45.194Z,100646.23
2019-04-27T14:51:12.412Z,100662.09
2019-04-27T14:53:39.326Z,100663.05
2019-04-27T14:56:08.842Z,100669.96
2019-04-27T14:58:35.987Z,100670.42
2019-04-27T15:01:02.928Z,100666.00
2019-04-27T15:03:29.826Z,100674.86
2019-04-27T15:05:56.793Z,100665.52
2019-04-27T15:08:25.159Z,100671.19
2019-04-27T15:10:53.962Z,100683.59
2019-04-27T15:13:21.128Z,100672.91
2019-04-27T15:15:47.820Z,100679.45
2019-04-27T15:18:15.289Z,100676.21
2019-04-27T15:20:46.183Z,100672.29
2019-04-27T15:23:13.415Z,100684.25
2019-04-27T15:25:45.614Z,100688.19
2019-04-27T15:28:15.288Z,100682.62
2019-04-27T15:31:23.586Z,100689.16
2019-04-27T15:34:02.671Z,100681.41
2019-04-27T15:36:56.885Z,100689.03
2019-04-27T15:39:37.532Z,100685.79
2019-04-27T15:42:08.159Z,100683.18
2019-04-27T15:44:36.450Z,100683.39
2019-04-27T15:47:10.339Z,100681.50
2019-04-27T15:49:33.610Z,100683.48
2019-04-27T15:52:00.263Z,100682.61
2019-04-27T15:54:31.912Z,100680.52
2019-04-27T15:56:55.863Z,100690.38
2019-04-27T15:59:30.959Z,100687.66
2019-04-27T16:01:55.724Z,100691.11
2019-04-27T16:04:23.070Z,100695.53
2019-04-27T16:06:50.205Z,100700.44
2019-04-27T16:09:23.939Z,100702.41
2019-04-27T16:11:50.136Z,100711.58
2019-04-27T16:14:16.024Z,100703.28
2019-04-27T16:16:43.783Z,100713.10
2019-04-27T16:19:11.649Z,100713.70
2019-04-27T16:21:41.597Z,100712.73
2019-04-27T16:24:08.487Z,100715.45
2019-04-27T16:26:35.275Z,100713.62
2019-04-27T16:29:04.473Z,100717.05
2019-04-27T16:31:32.880Z,100722.82
2019-04-27T16:34:02.766Z,100724.91
2019-04-27T16:36:30.002Z,100724.81
2019-04-27T16:39:03.761Z,100728.97
2019-04-27T16:41:33.128Z,100732.14
2019-04-27T16:44:02.222Z,100739.02
2019-04-27T16:46:29.448Z,100733.98
2019-04-27T16:48:59.230Z,100740.38
2019-04-27T16:51:24.689Z,100734.32
2019-04-27T16:53:54.606Z,100741.57
2019-04-27T16:56:20.994Z,100746.36
2019-04-27T16:58:56.295Z,100745.95
2019-04-27T17:01:21.495Z,100743.38
2019-04-27T17:03:48.677Z,100749.20
2019-04-27T17:06:15.605Z,100741.98
2019-04-27T17:08:42.697Z,100744.16
2019-04-27T17:11:13.710Z,100750.22
2019-04-27T17:13:44.398Z,100752.63
2019-04-27T17:16:24.790Z,100751.66
2019-04-27T17:19:04.737Z,100749.07
2019-04-27T17:21:33.292Z,100751.28
2019-04-27T17:24:03.002Z,100746.28
2019-04-27T17:26:29.233Z,100752.55
2019-04-27T17:29:09.703Z,100740.30
2019-04-27T17:31:35.344Z,100743.73
2019-04-27T17:34:01.935Z,100749.03
2019-04-27T17:36:30.368Z,100756.23
2019-04-27T17:38:58.409Z,100760.88
2019-04-27T17:41:25.179Z,100754.73
2019-04-27T17:43:51.814Z,100758.78
2019-04-27T17:46:19.953Z,100762.80
2019-04-27T17:48:48.587Z,100765.55
2019-04-27T17:51:15.670Z,100765.45
2019-04-27T17:53:44.386Z,100772.19
2019-04-27T17:56:11.183Z,100771.16
2019-04-27T17:58:39.695Z,100775.98
2019-04-27T18:01:09.548Z,100776.41
2019-04-27T18:03:38.730Z,100774.36
2019-04-27T18:06:06.001Z,100776.42
2019-04-27T18:08:32.870Z,100780.91
2019-04-27T18:11:03.068Z,100788.32
2019-04-27T18:13:28.835Z,100787.33
2019-04-27T18:15:55.516Z,100786.14
2019-04-27T18:18:41.433Z,100792.19
2019-04-27T18:21:09.000Z,100788.16
2019-04-27T18:23:37.648Z,100787.82
2019-04-27T18:26:30.135Z,100789.18
2019-04-27T18:29:00.038Z,100785.52
2019-04-27T18:31:25.534Z,100789.28
2019-04-27T18:33:52.104Z,100795.05
2019-04-27T18:36:18.943Z,100798.50
2019-04-27T18:38:46.639Z,100807.58
2019-04-27T18:41:14.053Z,100809.89
2019-04-27T18:43:46.475Z,100814.33
2019-04-27T18:46:09.653Z,100817.59
2019-04-27T18:49:03.286Z,100821.34
2019-04-27T18:51:52.624Z,100825.77
2019-04-27T18:54:19.403Z,100833.09
2019-04-27T18:56:47.825Z,100842.79
2019-04-27T18:59:15.264Z,100846.23
2019-04-27T19:01:41.840Z,100850.66
2019-04-27T19:04:08.792Z,100848.74
2019-04-27T19:06:39.124Z,100850.48
2019-04-27T19:09:05.863Z,100852.39
2019-04-27T19:11:33.163Z,100855.88
2019-04-27T19:14:00.694Z,100862.03
2019-04-27T19:16:29.193Z,100866.91
2019-04-27T19:18:58.266Z,100864.63
2019-04-27T19:21:24.899Z,100872.88
2019-04-27T19:23:52.488Z,100867.80
2019-04-27T19:26:41.385Z,100867.77
2019-04-27T19:29:14.293Z,100874.13
2019-04-27T19:31:45.332Z,100873.16
2019-04-27T19:34:12.931Z,100878.48
2019-04-27T19:36:39.586Z,100883.14
2019-04-27T19:39:08.726Z,100887.31
2019-04-27T19:41:37.904Z,100891.77
2019-04-27T19:44:04.771Z,100891.38
2019-04-27T19:46:31.448Z,100893.78
2019-04-27T19:48:59.404Z,100892.73
2019-04-27T19:51:28.537Z,100890.33
2019-04-27T19:53:55.165Z,100896.34
2019-04-27T19:56:22.227Z,100895.45
2019-04-27T19:58:52.741Z,100897.36
2019-04-27T20:01:28.349Z,100894.27
2019-04-27T20:04:00.056Z,100899.44
2019-04-27T20:06:26.787Z,100900.73
2019-04-27T20:08:55.377Z,100905.30
2019-04-27T20:11:22.925Z,100903.56
2019-04-27T20:13:50.602Z,100908.26
2019-04-27T20:16:20.798Z,100915.37
2019-04-27T20:18:47.642Z,100916.62
2019-04-27T20:21:14.375Z,100912.86
2019-04-27T20:23:41.321Z,100907.67
2019-04-27T20:26:08.137Z,100912.97
2019-04-27T20:28:34.992Z,100918.83
2019-04-27T20:31:02.817Z,100912.09
2019-04-27T20:33:31.153Z,100923.17
2019-04-27T20:35:57.893Z,100923.84
2019-04-27T20:38:24.604Z,100926.41
2019-04-27T20:40:52.842Z,100924.97
2019-04-27T20:43:21.383Z,100929.34
2019-04-27T20:45:48.279Z,100935.25
2019-04-27T20:48:14.923Z,100935.28
2019-04-27T20:50:41.819Z,100938.50
2019-04-27T20:53:13.481Z,100936.80
2019-04-27T20:55:40.483Z,100937.16
2019-04-27T20:58:08.244Z,100942.39
2019-04-27T21:00:35.269Z,100939.03
2019-04-27T21:03:25.100Z,100944.79
2019-04-27T21:06:21.238Z,100949.17
2019-04-27T21:08:49.336Z,100949.38
2019-04-27T21:11:16.303Z,100951.68
2019-04-27T21:13:43.252Z,100952.25
2019-04-27T21:16:10.932Z,100959.22
2019-04-27T21:18:38.594Z,100956.45
2019-04-27T21:21:05.483Z,100956.23
2019-04-27T21:23:32.344Z,100958.11
2019-04-27T21:25:59.300Z,100958.24
2019-04-27T21:28:26.009Z,100956.51
2019-04-27T21:30:53.079Z,100964.30
2019-04-27T21:33:21.552Z,100964.95
2019-04-27T21:35:51.013Z,100962.02
2019-04-27T21:38:17.831Z,100968.34
2019-04-27T21:40:44.451Z,100962.76
2019-04-27T21:43:11.439Z,100959.07
2019-04-27T21:45:38.026Z,100967.59
2019-04-27T21:48:04.647Z,100975.39
2019-04-27T21:50:31.646Z,100975.39
2019-04-27T21:53:04.415Z,100979.16
2019-04-27T21:55:31.185Z,100979.16
2019-04-27T21:57:57.844Z,100976.52
2019-04-27T22:00:52.469Z,100982.66
2019-04-27T22:03:24.771Z,100983.75
2019-04-27T22:05:51.665Z,100982.80
2019-04-27T22:08:18.301Z,100993.81
2019-04-27T22:10:45.067Z,100984.64
2019-04-27T22:13:11.798Z,101001.78
2019-04-27T22:15:38.524Z,101001.78
2019-04-27T22:18:05.312Z,101003.51
2019-04-27T22:20:32.504Z,101002.50
2019-04-27T22:23:01.800Z,101004.13
2019-04-27T22:25:32.363Z,101002.79
2019-04-27T22:27:59.038Z,100982.75
2019-04-27T22:30:25.891Z,101004.74
2019-04-27T22:32:52.578Z,101004.74
2019-04-27T22:35:20.693Z,101009.89
2019-04-27T22:37:49.077Z,101005.22
2019-04-27T22:40:39.496Z,101008.23
2019-04-27T22:43:20.410Z,101007.38
2019-04-27T22:45:47.151Z,101013.52
2019-04-27T22:48:13.708Z,101013.52
2019-04-27T22:50:41.338Z,101017.46
2019-04-27T22:53:08.504Z,101014.72
2019-04-27T22:55:38.511Z,101013.61
2019-04-27T22:58:12.628Z,101014.56
2019-04-27T23:00:57.475Z,101012.18
2019-04-27T23:03:28.526Z,101015.17
2019-04-27T23:05:55.148Z,101018.97
2019-04-27T23:08:22.694Z,101018.11
2019-04-27T23:10:49.539Z,101009.72
2019-04-27T23:13:16.538Z,101017.38
2019-04-27T23:15:46.275Z,101022.44
2019-04-27T23:18:13.267Z,101023.95
2019-04-27T23:20:40.769Z,101016.45
2019-04-27T23:23:11.271Z,101026.41
2019-04-27T23:25:38.019Z,101028.98
2019-04-27T23:28:05.992Z,101033.17
2019-04-27T23:30:43.409Z,101028.44
2019-04-27T23:33:11.149Z,101028.70
2019-04-27T23:35:41.059Z,101031.36
2019-04-27T23:38:16.834Z,101029.61
2019-04-27T23:40:36.965Z,101032.07
2019-04-27T23:43:03.798Z,101030.03
2019-04-27T23:45:31.901Z,101027.42
2019-04-27T23:47:58.780Z,101033.25
2019-04-27T23:50:27.749Z,101030.58
2019-04-27T23:53:05.881Z,101027.88
2019-04-27T23:55:33.582Z,101024.67
2019-04-27T23:58:00.541Z,101022.29
